sensor_id;sensor_type;location;lat;lon;timestamp;P1;durP1;ratioP1;P2;durP2;ratioP2
75191;SDS011;63771;52.580;9.734;2023-09-30T00:00:41;5.15;;;2.72;;
75191;SDS011;63771;52.580;9.734;2023-09-30T00:03:07;8.80;;;2.60;;
75191;SDS011;63771;52.580;9.734;2023-09-30T00:05:32;7.53;;;3.43;;
75191;SDS011;63771;52.580;9.734;2023-09-30T00:07:58;11.35;;;3.22;;
75191;SDS011;63771;52.580;9.734;2023-09-30T00:10:23;10.13;;;3.07;;
75191;SDS011;63771;52.580;9.734;2023-09-30T00:12:48;8.40;;;3.47;;
75191;SDS011;63771;52.580;9.734;2023-09-30T00:15:13;7.43;;;2.77;;
75191;SDS011;63771;52.580;9.734;2023-09-30T00:17:39;11.23;;;2.70;;
75191;SDS011;63771;52.580;9.734;2023-09-30T00:20:04;11.00;;;3.23;;
75191;SDS011;63771;52.580;9.734;2023-09-30T00:22:30;9.43;;;3.85;;
75191;SDS011;63771;52.580;9.734;2023-09-30T00:24:56;10.13;;;3.23;;
75191;SDS011;63771;52.580;9.734;2023-09-30T00:27:21;6.75;;;3.20;;
75191;SDS011;63771;52.580;9.734;2023-09-30T00:29:47;12.52;;;3.25;;
75191;SDS011;63771;52.580;9.734;2023-09-30T00:32:12;12.60;;;3.63;;
75191;SDS011;63771;52.580;9.734;2023-09-30T00:34:37;7.33;;;4.07;;
75191;SDS011;63771;52.580;9.734;2023-09-30T00:37:03;7.05;;;3.13;;
75191;SDS011;63771;52.580;9.734;2023-09-30T00:39:28;6.27;;;2.80;;
75191;SDS011;63771;52.580;9.734;2023-09-30T00:41:56;10.18;;;2.90;;
75191;SDS011;63771;52.580;9.734;2023-09-30T00:44:27;7.40;;;3.17;;
75191;SDS011;63771;52.580;9.734;2023-09-30T00:46:53;12.98;;;2.95;;
75191;SDS011;63771;52.580;9.734;2023-09-30T00:49:22;7.95;;;3.35;;
75191;SDS011;63771;52.580;9.734;2023-09-30T00:51:49;8.93;;;2.80;;
75191;SDS011;63771;52.580;9.734;2023-09-30T00:54:15;5.60;;;2.67;;
75191;SDS011;63771;52.580;9.734;2023-09-30T00:56:45;5.15;;;2.42;;
75191;SDS011;63771;52.580;9.734;2023-09-30T00:59:15;14.07;;;3.05;;
75191;SDS011;63771;52.580;9.734;2023-09-30T01:01:44;6.47;;;3.10;;
75191;SDS011;63771;52.580;9.734;2023-09-30T01:04:14;12.68;;;4.47;;
75191;SDS011;63771;52.580;9.734;2023-09-30T01:06:40;9.57;;;3.22;;
75191;SDS011;63771;52.580;9.734;2023-09-30T01:09:05;12.77;;;2.97;;
75191;SDS011;63771;52.580;9.734;2023-09-30T01:11:34;6.95;;;3.65;;
75191;SDS011;63771;52.580;9.734;2023-09-30T01:14:00;7.05;;;3.03;;
75191;SDS011;63771;52.580;9.734;2023-09-30T01:16:25;10.83;;;2.80;;
75191;SDS011;63771;52.580;9.734;2023-09-30T01:18:50;9.33;;;3.30;;
75191;SDS011;63771;52.580;9.734;2023-09-30T01:21:16;6.78;;;2.78;;
75191;SDS011;63771;52.580;9.734;2023-09-30T01:23:43;7.13;;;2.97;;
75191;SDS011;63771;52.580;9.734;2023-09-30T01:26:11;12.00;;;3.15;;
75191;SDS011;63771;52.580;9.734;2023-09-30T01:28:37;12.15;;;3.67;;
75191;SDS011;63771;52.580;9.734;2023-09-30T01:31:04;13.40;;;3.17;;
75191;SDS011;63771;52.580;9.734;2023-09-30T01:33:30;11.90;;;5.28;;
75191;SDS011;63771;52.580;9.734;2023-09-30T01:35:56;7.15;;;2.30;;
75191;SDS011;63771;52.580;9.734;2023-09-30T01:38:21;5.47;;;3.00;;
75191;SDS011;63771;52.580;9.734;2023-09-30T01:40:46;9.17;;;2.70;;
75191;SDS011;63771;52.580;9.734;2023-09-30T01:43:12;8.75;;;2.90;;
75191;SDS011;63771;52.580;9.734;2023-09-30T01:45:39;9.73;;;2.80;;
75191;SDS011;63771;52.580;9.734;2023-09-30T01:48:05;6.45;;;3.50;;
75191;SDS011;63771;52.580;9.734;2023-09-30T01:50:30;7.72;;;2.83;;
75191;SDS011;63771;52.580;9.734;2023-09-30T01:52:56;9.20;;;2.45;;
75191;SDS011;63771;52.580;9.734;2023-09-30T01:55:22;9.57;;;2.83;;
75191;SDS011;63771;52.580;9.734;2023-09-30T01:57:47;8.30;;;2.60;;
75191;SDS011;63771;52.580;9.734;2023-09-30T02:00:12;8.33;;;3.80;;
75191;SDS011;63771;52.580;9.734;2023-09-30T02:02:38;4.85;;;2.65;;
75191;SDS011;63771;52.580;9.734;2023-09-30T02:05:04;9.88;;;2.97;;
75191;SDS011;63771;52.580;9.734;2023-09-30T02:07:29;6.63;;;2.55;;
75191;SDS011;63771;52.580;9.734;2023-09-30T02:09:55;10.63;;;3.58;;
75191;SDS011;63771;52.580;9.734;2023-09-30T02:12:21;9.60;;;3.42;;
75191;SDS011;63771;52.580;9.734;2023-09-30T02:14:46;10.13;;;3.47;;
75191;SDS011;63771;52.580;9.734;2023-09-30T02:17:12;7.93;;;2.50;;
75191;SDS011;63771;52.580;9.734;2023-09-30T02:19:38;7.40;;;2.58;;
75191;SDS011;63771;52.580;9.734;2023-09-30T02:22:05;11.07;;;4.93;;
75191;SDS011;63771;52.580;9.734;2023-09-30T02:24:31;7.88;;;2.58;;
75191;SDS011;63771;52.580;9.734;2023-09-30T02:26:56;9.05;;;2.30;;
75191;SDS011;63771;52.580;9.734;2023-09-30T02:29:21;5.43;;;2.40;;
75191;SDS011;63771;52.580;9.734;2023-09-30T02:31:46;9.83;;;2.87;;
75191;SDS011;63771;52.580;9.734;2023-09-30T02:34:12;6.80;;;2.90;;
75191;SDS011;63771;52.580;9.734;2023-09-30T02:36:38;8.40;;;2.20;;
75191;SDS011;63771;52.580;9.734;2023-09-30T02:39:04;7.88;;;2.85;;
75191;SDS011;63771;52.580;9.734;2023-09-30T02:41:30;10.88;;;2.70;;
75191;SDS011;63771;52.580;9.734;2023-09-30T02:43:55;3.75;;;2.15;;
75191;SDS011;63771;52.580;9.734;2023-09-30T02:46:20;11.23;;;3.20;;
75191;SDS011;63771;52.580;9.734;2023-09-30T02:48:46;12.53;;;3.37;;
75191;SDS011;63771;52.580;9.734;2023-09-30T02:51:11;10.87;;;2.77;;
75191;SDS011;63771;52.580;9.734;2023-09-30T02:53:37;9.27;;;2.58;;
75191;SDS011;63771;52.580;9.734;2023-09-30T02:56:02;5.72;;;2.67;;
75191;SDS011;63771;52.580;9.734;2023-09-30T02:58:29;16.38;;;3.40;;
75191;SDS011;63771;52.580;9.734;2023-09-30T03:00:54;6.60;;;2.72;;
75191;SDS011;63771;52.580;9.734;2023-09-30T03:03:20;9.70;;;2.95;;
75191;SDS011;63771;52.580;9.734;2023-09-30T03:05:46;7.15;;;2.55;;
75191;SDS011;63771;52.580;9.734;2023-09-30T03:08:15;9.15;;;2.75;;
75191;SDS011;63771;52.580;9.734;2023-09-30T03:10:40;5.93;;;2.47;;
75191;SDS011;63771;52.580;9.734;2023-09-30T03:13:06;14.60;;;3.47;;
75191;SDS011;63771;52.580;9.734;2023-09-30T03:15:33;10.50;;;2.92;;
75191;SDS011;63771;52.580;9.734;2023-09-30T03:18:03;11.52;;;3.90;;
75191;SDS011;63771;52.580;9.734;2023-09-30T03:20:29;13.15;;;3.22;;
75191;SDS011;63771;52.580;9.734;2023-09-30T03:22:56;7.50;;;2.83;;
75191;SDS011;63771;52.580;9.734;2023-09-30T03:25:21;9.45;;;3.05;;
75191;SDS011;63771;52.580;9.734;2023-09-30T03:27:47;7.13;;;2.38;;
75191;SDS011;63771;52.580;9.734;2023-09-30T03:30:13;9.38;;;3.20;;
75191;SDS011;63771;52.580;9.734;2023-09-30T03:32:40;7.72;;;3.40;;
75191;SDS011;63771;52.580;9.734;2023-09-30T03:35:07;7.82;;;3.42;;
75191;SDS011;63771;52.580;9.734;2023-09-30T03:37:36;9.70;;;3.35;;
75191;SDS011;63771;52.580;9.734;2023-09-30T03:40:02;7.60;;;3.20;;
75191;SDS011;63771;52.580;9.734;2023-09-30T03:42:38;17.10;;;3.88;;
75191;SDS011;63771;52.580;9.734;2023-09-30T03:45:05;10.20;;;3.53;;
75191;SDS011;63771;52.580;9.734;2023-09-30T03:47:35;8.77;;;3.33;;
75191;SDS011;63771;52.580;9.734;2023-09-30T03:50:01;8.35;;;3.22;;
75191;SDS011;63771;52.580;9.734;2023-09-30T03:52:28;11.10;;;3.40;;
75191;SDS011;63771;52.580;9.734;2023-09-30T03:54:53;10.07;;;3.25;;
75191;SDS011;63771;52.580;9.734;2023-09-30T03:57:19;11.20;;;3.30;;
75191;SDS011;63771;52.580;9.734;2023-09-30T03:59:44;13.63;;;3.58;;
75191;SDS011;63771;52.580;9.734;2023-09-30T04:02:11;9.13;;;4.07;;
75191;SDS011;63771;52.580;9.734;2023-09-30T04:04:37;9.75;;;3.25;;
75191;SDS011;63771;52.580;9.734;2023-09-30T04:07:03;8.77;;;3.37;;
75191;SDS011;63771;52.580;9.734;2023-09-30T04:09:31;7.65;;;3.42;;
75191;SDS011;63771;52.580;9.734;2023-09-30T04:11:57;10.13;;;3.25;;
75191;SDS011;63771;52.580;9.734;2023-09-30T04:14:23;8.63;;;3.30;;
75191;SDS011;63771;52.580;9.734;2023-09-30T04:16:50;8.15;;;3.83;;
75191;SDS011;63771;52.580;9.734;2023-09-30T04:19:15;10.45;;;3.38;;
75191;SDS011;63771;52.580;9.734;2023-09-30T04:21:40;8.83;;;4.10;;
75191;SDS011;63771;52.580;9.734;2023-09-30T04:24:06;9.57;;;3.15;;
75191;SDS011;63771;52.580;9.734;2023-09-30T04:26:32;13.25;;;3.40;;
75191;SDS011;63771;52.580;9.734;2023-09-30T04:28:57;11.75;;;3.67;;
75191;SDS011;63771;52.580;9.734;2023-09-30T04:31:23;8.63;;;3.67;;
75191;SDS011;63771;52.580;9.734;2023-09-30T04:33:49;16.90;;;4.30;;
75191;SDS011;63771;52.580;9.734;2023-09-30T04:36:18;8.40;;;3.17;;
75191;SDS011;63771;52.580;9.734;2023-09-30T04:38:43;12.85;;;3.38;;
75191;SDS011;63771;52.580;9.734;2023-09-30T04:41:09;10.40;;;3.87;;
75191;SDS011;63771;52.580;9.734;2023-09-30T04:43:34;7.55;;;3.42;;
75191;SDS011;63771;52.580;9.734;2023-09-30T04:46:00;10.93;;;4.25;;
75191;SDS011;63771;52.580;9.734;2023-09-30T04:48:26;7.10;;;2.95;;
75191;SDS011;63771;52.580;9.734;2023-09-30T04:50:51;4.90;;;2.83;;
75191;SDS011;63771;52.580;9.734;2023-09-30T04:53:17;10.23;;;3.88;;
75191;SDS011;63771;52.580;9.734;2023-09-30T04:55:44;12.38;;;4.57;;
75191;SDS011;63771;52.580;9.734;2023-09-30T04:58:10;9.38;;;3.33;;
75191;SDS011;63771;52.580;9.734;2023-09-30T05:00:36;8.63;;;3.03;;
75191;SDS011;63771;52.580;9.734;2023-09-30T05:03:01;7.55;;;3.30;;
75191;SDS011;63771;52.580;9.734;2023-09-30T05:05:27;11.63;;;2.83;;
75191;SDS011;63771;52.580;9.734;2023-09-30T05:07:53;10.25;;;3.33;;
75191;SDS011;63771;52.580;9.734;2023-09-30T05:10:19;11.57;;;3.95;;
75191;SDS011;63771;52.580;9.734;2023-09-30T05:12:44;7.43;;;3.23;;
75191;SDS011;63771;52.580;9.734;2023-09-30T05:15:13;10.52;;;3.08;;
75191;SDS011;63771;52.580;9.734;2023-09-30T05:17:42;7.28;;;2.53;;
75191;SDS011;63771;52.580;9.734;2023-09-30T05:20:10;5.07;;;2.72;;
75191;SDS011;63771;52.580;9.734;2023-09-30T05:22:37;9.07;;;3.13;;
75191;SDS011;63771;52.580;9.734;2023-09-30T05:25:04;8.27;;;2.72;;
75191;SDS011;63771;52.580;9.734;2023-09-30T05:27:29;9.55;;;2.78;;
75191;SDS011;63771;52.580;9.734;2023-09-30T05:29:55;7.60;;;2.63;;
75191;SDS011;63771;52.580;9.734;2023-09-30T05:32:21;8.13;;;3.72;;
75191;SDS011;63771;52.580;9.734;2023-09-30T05:34:47;9.27;;;3.55;;
75191;SDS011;63771;52.580;9.734;2023-09-30T05:37:13;7.53;;;2.67;;
75191;SDS011;63771;52.580;9.734;2023-09-30T05:39:39;10.45;;;3.30;;
75191;SDS011;63771;52.580;9.734;2023-09-30T05:42:05;3.90;;;2.20;;
75191;SDS011;63771;52.580;9.734;2023-09-30T05:44:31;7.07;;;2.80;;
75191;SDS011;63771;52.580;9.734;2023-09-30T05:46:57;14.30;;;2.70;;
75191;SDS011;63771;52.580;9.734;2023-09-30T05:49:22;9.88;;;3.38;;
75191;SDS011;63771;52.580;9.734;2023-09-30T05:51:48;10.07;;;2.22;;
75191;SDS011;63771;52.580;9.734;2023-09-30T05:54:15;7.80;;;3.15;;
75191;SDS011;63771;52.580;9.734;2023-09-30T05:56:41;8.05;;;3.28;;
75191;SDS011;63771;52.580;9.734;2023-09-30T05:59:08;8.40;;;2.53;;
75191;SDS011;63771;52.580;9.734;2023-09-30T06:01:34;8.10;;;3.72;;
75191;SDS011;63771;52.580;9.734;2023-09-30T06:04:01;9.07;;;2.67;;
75191;SDS011;63771;52.580;9.734;2023-09-30T06:06:26;9.93;;;2.42;;
75191;SDS011;63771;52.580;9.734;2023-09-30T06:08:54;9.23;;;3.88;;
75191;SDS011;63771;52.580;9.734;2023-09-30T06:11:20;7.70;;;2.78;;
75191;SDS011;63771;52.580;9.734;2023-09-30T06:13:52;8.18;;;2.72;;
75191;SDS011;63771;52.580;9.734;2023-09-30T06:16:18;8.80;;;3.67;;
75191;SDS011;63771;52.580;9.734;2023-09-30T06:18:44;8.80;;;3.22;;
75191;SDS011;63771;52.580;9.734;2023-09-30T06:21:10;8.50;;;3.78;;
75191;SDS011;63771;52.580;9.734;2023-09-30T06:23:36;12.15;;;2.75;;
75191;SDS011;63771;52.580;9.734;2023-09-30T06:26:01;8.67;;;2.90;;
75191;SDS011;63771;52.580;9.734;2023-09-30T06:28:29;4.32;;;2.30;;
75191;SDS011;63771;52.580;9.734;2023-09-30T06:30:56;5.78;;;2.67;;
75191;SDS011;63771;52.580;9.734;2023-09-30T06:33:22;5.88;;;2.78;;
75191;SDS011;63771;52.580;9.734;2023-09-30T06:35:48;6.13;;;2.58;;
75191;SDS011;63771;52.580;9.734;2023-09-30T06:38:18;14.35;;;3.20;;
75191;SDS011;63771;52.580;9.734;2023-09-30T06:40:43;8.63;;;2.75;;
75191;SDS011;63771;52.580;9.734;2023-09-30T06:43:10;7.43;;;3.15;;
75191;SDS011;63771;52.580;9.734;2023-09-30T06:45:35;6.80;;;2.75;;
75191;SDS011;63771;52.580;9.734;2023-09-30T06:48:06;8.00;;;2.35;;
75191;SDS011;63771;52.580;9.734;2023-09-30T06:50:31;9.03;;;2.73;;
75191;SDS011;63771;52.580;9.734;2023-09-30T06:52:56;7.57;;;3.60;;
75191;SDS011;63771;52.580;9.734;2023-09-30T06:55:22;8.45;;;3.13;;
75191;SDS011;63771;52.580;9.734;2023-09-30T06:57:47;10.93;;;3.17;;
75191;SDS011;63771;52.580;9.734;2023-09-30T07:00:13;7.28;;;2.78;;
75191;SDS011;63771;52.580;9.734;2023-09-30T07:02:40;10.82;;;3.33;;
75191;SDS011;63771;52.580;9.734;2023-09-30T07:05:12;6.22;;;3.80;;
75191;SDS011;63771;52.580;9.734;2023-09-30T07:07:38;8.63;;;3.10;;
75191;SDS011;63771;52.580;9.734;2023-09-30T07:10:07;8.25;;;3.50;;
75191;SDS011;63771;52.580;9.734;2023-09-30T07:12:33;8.52;;;4.35;;
75191;SDS011;63771;52.580;9.734;2023-09-30T07:15:00;11.27;;;3.58;;
75191;SDS011;63771;52.580;9.734;2023-09-30T07:17:27;7.30;;;2.88;;
75191;SDS011;63771;52.580;9.734;2023-09-30T07:19:53;5.87;;;2.83;;
75191;SDS011;63771;52.580;9.734;2023-09-30T07:22:18;8.60;;;2.55;;
75191;SDS011;63771;52.580;9.734;2023-09-30T07:24:43;7.33;;;2.30;;
75191;SDS011;63771;52.580;9.734;2023-09-30T07:27:09;8.10;;;2.33;;
75191;SDS011;63771;52.580;9.734;2023-09-30T07:29:34;6.13;;;3.53;;
75191;SDS011;63771;52.580;9.734;2023-09-30T07:32:00;12.00;;;3.60;;
75191;SDS011;63771;52.580;9.734;2023-09-30T07:34:25;10.03;;;3.23;;
75191;SDS011;63771;52.580;9.734;2023-09-30T07:36:50;5.15;;;2.50;;
75191;SDS011;63771;52.580;9.734;2023-09-30T07:39:16;9.57;;;2.72;;
75191;SDS011;63771;52.580;9.734;2023-09-30T07:41:42;7.47;;;2.63;;
75191;SDS011;63771;52.580;9.734;2023-09-30T07:44:07;10.02;;;3.17;;
75191;SDS011;63771;52.580;9.734;2023-09-30T07:46:34;16.25;;;3.17;;
75191;SDS011;63771;52.580;9.734;2023-09-30T07:48:59;7.40;;;2.40;;
75191;SDS011;63771;52.580;9.734;2023-09-30T07:51:25;7.13;;;3.17;;
75191;SDS011;63771;52.580;9.734;2023-09-30T07:53:50;6.83;;;2.10;;
75191;SDS011;63771;52.580;9.734;2023-09-30T07:56:16;6.77;;;3.13;;
75191;SDS011;63771;52.580;9.734;2023-09-30T07:58:41;5.13;;;2.33;;
75191;SDS011;63771;52.580;9.734;2023-09-30T08:01:07;9.35;;;2.55;;
75191;SDS011;63771;52.580;9.734;2023-09-30T08:03:33;5.85;;;2.50;;
75191;SDS011;63771;52.580;9.734;2023-09-30T08:05:59;6.25;;;3.38;;
75191;SDS011;63771;52.580;9.734;2023-09-30T08:08:25;7.05;;;3.03;;
75191;SDS011;63771;52.580;9.734;2023-09-30T08:10:50;7.60;;;2.10;;
75191;SDS011;63771;52.580;9.734;2023-09-30T08:13:15;7.75;;;2.60;;
75191;SDS011;63771;52.580;9.734;2023-09-30T08:15:42;5.70;;;2.00;;
75191;SDS011;63771;52.580;9.734;2023-09-30T08:18:07;10.00;;;3.05;;
75191;SDS011;63771;52.580;9.734;2023-09-30T08:20:33;6.93;;;2.53;;
75191;SDS011;63771;52.580;9.734;2023-09-30T08:22:59;8.00;;;2.50;;
75191;SDS011;63771;52.580;9.734;2023-09-30T08:25:24;6.15;;;2.33;;
75191;SDS011;63771;52.580;9.734;2023-09-30T08:27:49;5.18;;;2.53;;
75191;SDS011;63771;52.580;9.734;2023-09-30T08:30:15;8.73;;;2.70;;
75191;SDS011;63771;52.580;9.734;2023-09-30T08:32:40;8.05;;;2.40;;
75191;SDS011;63771;52.580;9.734;2023-09-30T08:35:06;4.73;;;2.20;;
75191;SDS011;63771;52.580;9.734;2023-09-30T08:37:32;5.82;;;2.08;;
75191;SDS011;63771;52.580;9.734;2023-09-30T08:39:58;9.15;;;3.55;;
75191;SDS011;63771;52.580;9.734;2023-09-30T08:42:23;7.18;;;2.33;;
75191;SDS011;63771;52.580;9.734;2023-09-30T08:44:52;4.50;;;2.45;;
75191;SDS011;63771;52.580;9.734;2023-09-30T08:47:19;6.65;;;2.22;;
75191;SDS011;63771;52.580;9.734;2023-09-30T08:49:45;13.77;;;2.90;;
75191;SDS011;63771;52.580;9.734;2023-09-30T08:54:39;7.75;;;2.35;;
75191;SDS011;63771;52.580;9.734;2023-09-30T08:57:04;11.98;;;3.45;;
75191;SDS011;63771;52.580;9.734;2023-09-30T08:59:32;5.75;;;2.05;;
75191;SDS011;63771;52.580;9.734;2023-09-30T09:04:25;10.90;;;2.97;;
75191;SDS011;63771;52.580;9.734;2023-09-30T09:06:52;10.05;;;2.10;;
75191;SDS011;63771;52.580;9.734;2023-09-30T09:09:18;5.68;;;2.38;;
75191;SDS011;63771;52.580;9.734;2023-09-30T09:11:46;8.20;;;2.38;;
75191;SDS011;63771;52.580;9.734;2023-09-30T09:14:11;5.68;;;1.80;;
75191;SDS011;63771;52.580;9.734;2023-09-30T09:16:37;8.23;;;2.42;;
75191;SDS011;63771;52.580;9.734;2023-09-30T09:19:15;3.45;;;2.03;;
75191;SDS011;63771;52.580;9.734;2023-09-30T09:21:52;7.35;;;2.53;;
75191;SDS011;63771;52.580;9.734;2023-09-30T09:24:33;8.82;;;2.30;;
75191;SDS011;63771;52.580;9.734;2023-09-30T09:27:09;7.05;;;2.67;;
75191;SDS011;63771;52.580;9.734;2023-09-30T09:29:36;6.55;;;2.00;;
75191;SDS011;63771;52.580;9.734;2023-09-30T09:32:06;5.40;;;2.35;;
75191;SDS011;63771;52.580;9.734;2023-09-30T09:34:33;5.45;;;2.65;;
75191;SDS011;63771;52.580;9.734;2023-09-30T09:36:59;7.77;;;2.20;;
75191;SDS011;63771;52.580;9.734;2023-09-30T09:39:30;3.33;;;1.67;;
75191;SDS011;63771;52.580;9.734;2023-09-30T09:41:56;5.50;;;2.00;;
75191;SDS011;63771;52.580;9.734;2023-09-30T09:44:23;6.43;;;1.85;;
75191;SDS011;63771;52.580;9.734;2023-09-30T09:46:52;6.15;;;1.90;;
75191;SDS011;63771;52.580;9.734;2023-09-30T09:49:18;10.00;;;2.50;;
75191;SDS011;63771;52.580;9.734;2023-09-30T09:51:45;3.67;;;1.83;;
75191;SDS011;63771;52.580;9.734;2023-09-30T09:54:11;4.35;;;2.88;;
75191;SDS011;63771;52.580;9.734;2023-09-30T09:56:38;9.93;;;2.03;;
75191;SDS011;63771;52.580;9.734;2023-09-30T09:59:04;3.40;;;1.90;;
75191;SDS011;63771;52.580;9.734;2023-09-30T10:01:31;5.38;;;2.25;;
75191;SDS011;63771;52.580;9.734;2023-09-30T10:03:59;4.68;;;1.85;;
75191;SDS011;63771;52.580;9.734;2023-09-30T10:06:25;4.15;;;1.80;;
75191;SDS011;63771;52.580;9.734;2023-09-30T10:08:51;4.82;;;1.67;;
75191;SDS011;63771;52.580;9.734;2023-09-30T10:11:18;5.22;;;1.50;;
75191;SDS011;63771;52.580;9.734;2023-09-30T10:13:56;6.20;;;1.58;;
75191;SDS011;63771;52.580;9.734;2023-09-30T10:19:09;4.05;;;1.70;;
75191;SDS011;63771;52.580;9.734;2023-09-30T10:21:36;6.10;;;2.58;;
75191;SDS011;63771;52.580;9.734;2023-09-30T10:29:56;4.45;;;2.13;;
75191;SDS011;63771;52.580;9.734;2023-09-30T10:35:15;3.78;;;1.52;;
75191;SDS011;63771;52.580;9.734;2023-09-30T10:37:42;3.55;;;1.35;;
75191;SDS011;63771;52.580;9.734;2023-09-30T10:40:07;2.28;;;1.33;;
75191;SDS011;63771;52.580;9.734;2023-09-30T10:50:50;4.53;;;1.85;;
75191;SDS011;63771;52.580;9.734;2023-09-30T10:53:20;4.55;;;1.80;;
75191;SDS011;63771;52.580;9.734;2023-09-30T10:55:46;4.47;;;2.42;;
75191;SDS011;63771;52.580;9.734;2023-09-30T10:58:12;6.40;;;1.52;;
75191;SDS011;63771;52.580;9.734;2023-09-30T11:00:38;5.30;;;2.10;;
75191;SDS011;63771;52.580;9.734;2023-09-30T11:03:04;3.63;;;1.40;;
75191;SDS011;63771;52.580;9.734;2023-09-30T11:05:30;4.05;;;1.55;;
75191;SDS011;63771;52.580;9.734;2023-09-30T11:07:57;2.28;;;1.63;;
75191;SDS011;63771;52.580;9.734;2023-09-30T11:10:28;4.85;;;1.70;;
75191;SDS011;63771;52.580;9.734;2023-09-30T11:12:54;4.40;;;2.05;;
75191;SDS011;63771;52.580;9.734;2023-09-30T11:15:20;5.95;;;1.95;;
75191;SDS011;63771;52.580;9.734;2023-09-30T11:17:46;4.13;;;2.45;;
75191;SDS011;63771;52.580;9.734;2023-09-30T11:20:11;5.57;;;1.83;;
75191;SDS011;63771;52.580;9.734;2023-09-30T11:22:37;7.80;;;2.00;;
75191;SDS011;63771;52.580;9.734;2023-09-30T11:25:04;2.42;;;1.38;;
75191;SDS011;63771;52.580;9.734;2023-09-30T11:27:29;6.38;;;1.88;;
75191;SDS011;63771;52.580;9.734;2023-09-30T11:29:56;6.53;;;1.95;;
75191;SDS011;63771;52.580;9.734;2023-09-30T11:32:26;7.07;;;2.42;;
75191;SDS011;63771;52.580;9.734;2023-09-30T11:34:52;3.60;;;1.83;;
75191;SDS011;63771;52.580;9.734;2023-09-30T11:37:18;3.90;;;1.75;;
75191;SDS011;63771;52.580;9.734;2023-09-30T11:39:43;2.00;;;1.52;;
75191;SDS011;63771;52.580;9.734;2023-09-30T11:42:15;3.92;;;1.67;;
75191;SDS011;63771;52.580;9.734;2023-09-30T11:44:45;5.30;;;1.58;;
75191;SDS011;63771;52.580;9.734;2023-09-30T11:47:15;2.95;;;1.90;;
75191;SDS011;63771;52.580;9.734;2023-09-30T11:49:42;2.95;;;1.63;;
75191;SDS011;63771;52.580;9.734;2023-09-30T11:52:13;5.30;;;2.17;;
75191;SDS011;63771;52.580;9.734;2023-09-30T11:54:43;1.08;;;0.98;;
75191;SDS011;63771;52.580;9.734;2023-09-30T11:57:14;3.35;;;1.30;;
75191;SDS011;63771;52.580;9.734;2023-09-30T11:59:40;6.65;;;1.58;;
75191;SDS011;63771;52.580;9.734;2023-09-30T12:02:09;4.82;;;1.27;;
75191;SDS011;63771;52.580;9.734;2023-09-30T12:04:35;3.05;;;1.60;;
75191;SDS011;63771;52.580;9.734;2023-09-30T12:07:01;8.23;;;1.40;;
75191;SDS011;63771;52.580;9.734;2023-09-30T12:09:26;1.70;;;1.60;;
75191;SDS011;63771;52.580;9.734;2023-09-30T12:11:52;3.55;;;1.60;;
75191;SDS011;63771;52.580;9.734;2023-09-30T12:14:18;2.83;;;1.50;;
75191;SDS011;63771;52.580;9.734;2023-09-30T12:16:45;2.90;;;1.60;;
75191;SDS011;63771;52.580;9.734;2023-09-30T12:19:11;3.85;;;1.88;;
75191;SDS011;63771;52.580;9.734;2023-09-30T12:21:38;5.47;;;1.40;;
75191;SDS011;63771;52.580;9.734;2023-09-30T12:24:04;7.22;;;2.10;;
75191;SDS011;63771;52.580;9.734;2023-09-30T12:26:30;4.05;;;1.60;;
75191;SDS011;63771;52.580;9.734;2023-09-30T12:28:56;3.80;;;1.63;;
75191;SDS011;63771;52.580;9.734;2023-09-30T12:31:21;1.85;;;1.58;;
75191;SDS011;63771;52.580;9.734;2023-09-30T12:33:48;5.50;;;1.67;;
75191;SDS011;63771;52.580;9.734;2023-09-30T12:36:16;3.33;;;1.65;;
75191;SDS011;63771;52.580;9.734;2023-09-30T12:38:41;2.95;;;1.50;;
75191;SDS011;63771;52.580;9.734;2023-09-30T12:41:07;3.63;;;1.65;;
75191;SDS011;63771;52.580;9.734;2023-09-30T12:43:33;2.05;;;1.40;;
75191;SDS011;63771;52.580;9.734;2023-09-30T12:45:58;2.50;;;1.27;;
75191;SDS011;63771;52.580;9.734;2023-09-30T12:48:24;3.50;;;1.52;;
75191;SDS011;63771;52.580;9.734;2023-09-30T12:50:49;4.30;;;1.45;;
75191;SDS011;63771;52.580;9.734;2023-09-30T12:53:15;1.47;;;0.97;;
75191;SDS011;63771;52.580;9.734;2023-09-30T12:55:40;2.22;;;1.10;;
75191;SDS011;63771;52.580;9.734;2023-09-30T12:58:06;5.85;;;1.42;;
75191;SDS011;63771;52.580;9.734;2023-09-30T13:00:31;4.47;;;1.13;;
75191;SDS011;63771;52.580;9.734;2023-09-30T13:02:58;7.15;;;1.70;;
75191;SDS011;63771;52.580;9.734;2023-09-30T13:05:25;2.30;;;1.55;;
75191;SDS011;63771;52.580;9.734;2023-09-30T13:07:50;8.17;;;1.50;;
75191;SDS011;63771;52.580;9.734;2023-09-30T13:10:15;4.40;;;1.90;;
75191;SDS011;63771;52.580;9.734;2023-09-30T13:12:41;6.60;;;1.55;;
75191;SDS011;63771;52.580;9.734;2023-09-30T13:15:06;5.00;;;1.73;;
75191;SDS011;63771;52.580;9.734;2023-09-30T13:17:33;6.60;;;1.77;;
75191;SDS011;63771;52.580;9.734;2023-09-30T13:19:59;4.75;;;1.77;;
75191;SDS011;63771;52.580;9.734;2023-09-30T13:22:24;6.70;;;1.77;;
75191;SDS011;63771;52.580;9.734;2023-09-30T13:24:49;6.17;;;1.80;;
75191;SDS011;63771;52.580;9.734;2023-09-30T13:27:16;2.78;;;1.50;;
75191;SDS011;63771;52.580;9.734;2023-09-30T13:29:41;5.40;;;1.35;;
75191;SDS011;63771;52.580;9.734;2023-09-30T13:32:09;3.20;;;1.70;;
75191;SDS011;63771;52.580;9.734;2023-09-30T13:34:34;3.22;;;1.70;;
75191;SDS011;63771;52.580;9.734;2023-09-30T13:36:59;2.13;;;1.63;;
75191;SDS011;63771;52.580;9.734;2023-09-30T13:39:25;2.17;;;1.43;;
75191;SDS011;63771;52.580;9.734;2023-09-30T13:41:50;5.63;;;2.13;;
75191;SDS011;63771;52.580;9.734;2023-09-30T13:44:15;7.40;;;1.97;;
75191;SDS011;63771;52.580;9.734;2023-09-30T13:46:41;5.20;;;1.63;;
75191;SDS011;63771;52.580;9.734;2023-09-30T13:49:07;3.53;;;1.52;;
75191;SDS011;63771;52.580;9.734;2023-09-30T13:51:33;3.05;;;1.60;;
75191;SDS011;63771;52.580;9.734;2023-09-30T13:53:58;5.20;;;1.47;;
75191;SDS011;63771;52.580;9.734;2023-09-30T13:56:23;6.63;;;1.70;;
75191;SDS011;63771;52.580;9.734;2023-09-30T13:58:48;3.97;;;1.60;;
75191;SDS011;63771;52.580;9.734;2023-09-30T14:01:14;4.90;;;1.63;;
75191;SDS011;63771;52.580;9.734;2023-09-30T14:03:40;5.50;;;2.13;;
75191;SDS011;63771;52.580;9.734;2023-09-30T14:06:09;5.10;;;1.48;;
75191;SDS011;63771;52.580;9.734;2023-09-30T14:08:38;10.93;;;1.92;;
75191;SDS011;63771;52.580;9.734;2023-09-30T14:11:03;5.63;;;2.10;;
75191;SDS011;63771;52.580;9.734;2023-09-30T14:13:29;3.78;;;1.60;;
75191;SDS011;63771;52.580;9.734;2023-09-30T14:15:55;6.82;;;2.05;;
75191;SDS011;63771;52.580;9.734;2023-09-30T14:18:20;5.40;;;1.67;;
75191;SDS011;63771;52.580;9.734;2023-09-30T14:20:45;4.43;;;1.40;;
75191;SDS011;63771;52.580;9.734;2023-09-30T14:23:11;3.37;;;1.60;;
75191;SDS011;63771;52.580;9.734;2023-09-30T14:25:36;3.95;;;1.50;;
75191;SDS011;63771;52.580;9.734;2023-09-30T14:28:01;2.47;;;1.67;;
75191;SDS011;63771;52.580;9.734;2023-09-30T14:30:27;4.03;;;1.63;;
75191;SDS011;63771;52.580;9.734;2023-09-30T14:32:53;2.05;;;1.77;;
75191;SDS011;63771;52.580;9.734;2023-09-30T14:35:19;3.35;;;1.80;;
75191;SDS011;63771;52.580;9.734;2023-09-30T14:37:44;6.55;;;2.45;;
75191;SDS011;63771;52.580;9.734;2023-09-30T14:40:10;2.83;;;1.90;;
75191;SDS011;63771;52.580;9.734;2023-09-30T14:42:36;5.57;;;2.00;;
75191;SDS011;63771;52.580;9.734;2023-09-30T14:45:02;5.38;;;1.73;;
75191;SDS011;63771;52.580;9.734;2023-09-30T14:47:28;6.10;;;1.92;;
75191;SDS011;63771;52.580;9.734;2023-09-30T14:49:54;5.50;;;1.77;;
75191;SDS011;63771;52.580;9.734;2023-09-30T14:52:19;2.72;;;1.90;;
75191;SDS011;63771;52.580;9.734;2023-09-30T14:54:44;4.30;;;1.70;;
75191;SDS011;63771;52.580;9.734;2023-09-30T14:57:10;4.07;;;2.25;;
75191;SDS011;63771;52.580;9.734;2023-09-30T14:59:36;3.83;;;2.03;;
75191;SDS011;63771;52.580;9.734;2023-09-30T15:02:02;2.08;;;1.85;;
75191;SDS011;63771;52.580;9.734;2023-09-30T15:04:27;5.45;;;1.58;;